Time;durP1;ratioP1;P1;durP2;ratioP2;P2;SDS_P1;SDS_P2;PMS_P1;PMS_P2;Temp;Humidity;BMP_temperature;BMP_pressure;BME280_temperature;BME280_humidity;BME280_pressure;Samples;Min_cycle;Max_cycle;Signal;HPM_P1;HPM_P2
2023/05/01 00:01:10;;;;;;;;;;;;;;;16.12;100.00;99530.03;5041108;28;19960;-80
2023/05/01 00:03:36;;;;;;;;;;;;;;;16.17;100.00;99540.13;5045426;28;19921;-81
2023/05/01 00:06:03;;;;;;;;;;;;;;;16.11;100.00;99516.88;5039597;28;20020;-80
2023/05/01 00:08:29;;;;;;;;;;;;;;;16.03;100.00;99519.59;5042478;28;19924;-80
2023/05/01 00:10:54;;;;;;;;;;;;;;;15.92;100.00;99521.69;5041009;28;19980;-81
2023/05/01 00:13:23;;;;;;;;;;;;;;;15.85;100.00;99518.06;5040992;28;19921;-80
2023/05/01 00:15:48;;;;;;;;;;;;;;;15.89;100.00;99513.25;5041451;28;19921;-80
2023/05/01 00:18:14;;;;;;;;;;;;;;;15.85;100.00;99515.41;5045790;28;19983;-80
2023/05/01 00:20:39;;;;;;;;;;;;;;;15.75;100.00;99519.31;5041013;28;19921;-80
2023/05/01 00:23:07;;;;;;;;;;;;;;;15.73;100.00;99519.47;5040260;28;19929;-80
2023/05/01 00:25:32;;;;;;;;;;;;;;;15.73;100.00;99519.47;5022902;28;20537;-80
2023/05/01 00:27:58;;;;;;;;;;;;;;;15.79;100.00;99516.13;5035627;28;19922;-80
2023/05/01 00:30:24;;;;;;;;;;;;;;;15.84;100.00;99513.78;5036180;28;20053;-80
2023/05/01 00:32:49;;;;;;;;;;;;;;;15.87;100.00;99513.41;5037144;28;19921;-80
2023/05/01 00:35:15;;;;;;;;;;;;;;;15.87;100.00;99516.06;5041240;28;19921;-80
2023/05/01 00:37:41;;;;;;;;;;;;;;;15.88;100.00;99507.09;5027377;28;19928;-79
2023/05/01 00:40:06;;;;;;;;;;;;;;;15.80;100.00;99509.78;5037738;28;19920;-80
2023/05/01 00:42:36;;;;;;;;;;;;;;;15.81;100.00;99510.63;5040149;28;20431;-80
2023/05/01 00:45:01;;;;;;;;;;;;;;;15.81;100.00;99507.97;5023129;28;19988;-80
2023/05/01 00:47:27;;;;;;;;;;;;;;;15.88;100.00;99500.94;5041995;28;19929;-80
2023/05/01 00:49:53;;;;;;;;;;;;;;;15.91;100.00;99501.38;5036083;28;19922;-80
2023/05/01 00:52:19;;;;;;;;;;;;;;;15.93;100.00;99498.56;5047941;28;19925;-80
2023/05/01 00:54:50;;;;;;;;;;;;;;;15.85;100.00;99499.44;5042759;28;19924;-80
2023/05/01 00:57:21;;;;;;;;;;;;;;;15.74;100.00;99494.53;5021536;28;19921;-80
2023/05/01 00:59:47;;;;;;;;;;;;;;;15.66;100.00;99491.94;5046110;28;19920;-80
2023/05/01 01:02:13;;;;;;;;;;;;;;;15.50;100.00;99486.69;5042700;28;20024;-80
2023/05/01 01:04:43;;;;;;;;;;;;;;;15.49;100.00;99487.72;5063248;28;19921;-80
2023/05/01 01:07:08;;;;;;;;;;;;;;;15.48;100.00;99488.72;5059835;28;19984;-79
2023/05/01 01:09:51;;;;;;;;;;;;;;;15.48;100.00;99486.06;5051878;28;20311;-79
2023/05/01 01:12:22;;;;;;;;;;;;;;;15.50;100.00;99482.19;5025280;28;19965;-80
2023/05/01 01:14:51;;;;;;;;;;;;;;;15.53;100.00;99481.06;5041125;28;19932;-80
2023/05/01 01:17:25;;;;;;;;;;;;;;;15.54;100.00;99477.41;5042629;28;20297;-80
2023/05/01 01:20:02;;;;;;;;;;;;;;;15.54;100.00;99472.09;5036039;28;20004;-79
2023/05/01 01:22:28;;;;;;;;;;;;;;;15.55;100.00;99473.75;5027424;28;20332;-79
2023/05/01 01:25:12;;;;;;;;;;;;;;;15.51;100.00;99477.72;5038657;28;19963;-80
2023/05/01 01:28:10;;;;;;;;;;;;;;;15.48;100.00;99470.09;5033624;28;19936;-80
2023/05/01 01:30:35;;;;;;;;;;;;;;;15.40;100.00;99470.97;5042544;28;19999;-80
2023/05/01 01:33:05;;;;;;;;;;;;;;;15.47;100.00;99461.28;5040437;28;19964;-79
2023/05/01 01:35:30;;;;;;;;;;;;;;;15.42;100.00;99452.19;5036737;28;20000;-79
2023/05/01 01:38:00;;;;;;;;;;;;;;;15.38;100.00;99461.50;5047247;28;20461;-79
2023/05/01 01:40:32;;;;;;;;;;;;;;;15.38;100.00;99456.19;5033673;28;19924;-80
2023/05/01 01:43:01;;;;;;;;;;;;;;;15.37;100.00;99454.56;5044624;28;19921;-79
2023/05/01 01:45:33;;;;;;;;;;;;;;;15.30;100.00;99453.59;5016291;28;20060;-79
2023/05/01 01:48:00;;;;;;;;;;;;;;;15.29;100.00;99451.94;5019480;28;19995;-81
2023/05/01 01:50:27;;;;;;;;;;;;;;;15.29;100.00;99446.59;5030911;28;19925;-80
2023/05/01 01:52:53;;;;;;;;;;;;;;;15.21;100.00;99446.66;5037171;28;19921;-80
2023/05/01 01:55:21;;;;;;;;;;;;;;;15.13;100.00;99447.53;5037501;28;19944;-80
2023/05/01 01:57:47;;;;;;;;;;;;;;;15.07;100.00;99443.75;5029418;28;19921;-80
2023/05/01 02:00:15;;;;;;;;;;;;;;;15.07;100.00;99448.25;5032925;28;19921;-80
2023/05/01 02:02:45;;;;;;;;;;;;;;;15.01;100.00;99441.78;5035852;28;19921;-80
2023/05/01 02:05:13;;;;;;;;;;;;;;;14.99;100.00;99443.78;5036335;28;19921;-80
2023/05/01 02:07:39;;;;;;;;;;;;;;;15.03;100.00;99453.06;5028812;28;19922;-80
2023/05/01 02:10:07;;;;;;;;;;;;;;;15.00;100.00;99442.78;5022221;28;19921;-80
2023/05/01 02:12:33;;;;;;;;;;;;;;;15.03;100.00;99436.28;5035191;28;19921;-80
2023/05/01 02:14:59;;;;;;;;;;;;;;;15.04;100.00;99438.78;5035741;28;20733;-79
2023/05/01 02:17:26;;;;;;;;;;;;;;;15.07;100.00;99443.75;5040523;28;19921;-80
2023/05/01 02:19:53;;;;;;;;;;;;;;;15.08;100.00;99444.56;5033753;28;19921;-80
2023/05/01 02:22:20;;;;;;;;;;;;;;;15.02;100.00;99440.75;5020578;28;19932;-81
2023/05/01 02:24:47;;;;;;;;;;;;;;;15.07;100.00;99435.78;5037695;28;19921;-80
2023/05/01 02:27:20;;;;;;;;;;;;;;;15.05;100.00;99432.47;5038231;28;19931;-80
2023/05/01 02:29:46;;;;;;;;;;;;;;;15.06;100.00;99434.13;5038222;28;19931;-79
2023/05/01 02:32:12;;;;;;;;;;;;;;;15.08;100.00;99426.78;5042194;28;20368;-81
2023/05/01 02:34:38;;;;;;;;;;;;;;;15.12;100.00;99430.75;5034928;28;20016;-81
2023/05/01 02:37:04;;;;;;;;;;;;;;;15.06;100.00;99426.16;5020122;28;20333;-80
2023/05/01 02:39:30;;;;;;;;;;;;;;;15.05;100.00;99424.47;5034359;28;19928;-81
2023/05/01 02:41:57;;;;;;;;;;;;;;;15.07;100.00;99417.19;5033398;28;20254;-81
2023/05/01 02:44:24;;;;;;;;;;;;;;;15.05;100.00;99424.47;5038507;28;19943;-81
2023/05/01 02:46:51;;;;;;;;;;;;;;;15.07;100.00;99422.50;5016961;28;19932;-81
2023/05/01 02:49:17;;;;;;;;;;;;;;;15.02;100.00;99424.81;5038613;28;19921;-81
2023/05/01 02:51:44;;;;;;;;;;;;;;;15.03;100.00;99429.13;5027553;28;19959;-81
2023/05/01 02:54:09;;;;;;;;;;;;;;;15.03;100.00;99423.81;5036497;28;20063;-81
2023/05/01 02:56:35;;;;;;;;;;;;;;;15.06;100.00;99415.53;5033635;28;20055;-81
2023/05/01 02:59:00;;;;;;;;;;;;;;;15.03;100.00;99415.84;5037045;28;20480;-81
2023/05/01 03:01:27;;;;;;;;;;;;;;;15.06;100.00;99409.38;5037269;28;19950;-81
2023/05/01 03:03:53;;;;;;;;;;;;;;;15.01;100.00;99404.59;5037516;28;19956;-81
2023/05/01 03:06:18;;;;;;;;;;;;;;;15.02;100.00;99403.56;5021143;28;20054;-81
2023/05/01 03:08:43;;;;;;;;;;;;;;;15.01;100.00;99406.41;5037063;28;19932;-81
2023/05/01 03:11:09;;;;;;;;;;;;;;;15.03;100.00;99397.25;5029996;28;19935;-81
2023/05/01 03:13:34;;;;;;;;;;;;;;;15.00;100.00;99397.63;5034314;28;20393;-81
2023/05/01 03:16:00;;;;;;;;;;;;;;;14.92;100.00;99392.34;5024776;28;19921;-81
2023/05/01 03:18:25;;;;;;;;;;;;;;;14.95;100.00;99385.84;5042327;28;19925;-81
2023/05/01 03:20:52;;;;;;;;;;;;;;;14.94;100.00;99390.34;5039436;28;19921;-81
2023/05/01 03:23:18;;;;;;;;;;;;;;;14.90;100.00;99378.41;5023359;28;19928;-80
2023/05/01 03:25:43;;;;;;;;;;;;;;;14.90;100.00;99373.09;5025733;28;19921;-81
2023/05/01 03:28:09;;;;;;;;;;;;;;;14.89;100.00;99373.28;5021649;28;19931;-80
2023/05/01 03:30:35;;;;;;;;;;;;;;;14.91;100.00;99373.91;5034706;28;20012;-80
2023/05/01 03:33:01;;;;;;;;;;;;;;;14.87;100.00;99373.44;5020348;28;19922;-81
2023/05/01 03:35:29;;;;;;;;;;;;;;;14.87;100.00;99373.44;5034370;28;20001;-81
2023/05/01 03:37:55;;;;;;;;;;;;;;;14.84;100.00;99378.28;5028415;28;19929;-81
2023/05/01 03:40:41;;;;;;;;;;;;;;;14.85;100.00;99378.09;5022772;28;19951;-80
2023/05/01 03:43:35;;;;;;;;;;;;;;;14.89;100.00;99375.94;5059347;28;19924;-80
2023/05/01 03:46:05;;;;;;;;;;;;;;;14.84;100.00;99379.13;5058930;28;19928;-81
2023/05/01 03:48:31;;;;;;;;;;;;;;;14.88;100.00;99385.72;5056832;28;19921;-81
2023/05/01 03:50:57;;;;;;;;;;;;;;;14.90;100.00;99388.22;5044749;28;20372;-81
2023/05/01 03:53:24;;;;;;;;;;;;;;;14.96;100.00;99387.50;5034997;28;19927;-80
2023/05/01 03:55:49;;;;;;;;;;;;;;;14.96;100.00;99388.31;5021031;28;20381;-80
2023/05/01 03:58:15;;;;;;;;;;;;;;;15.01;100.00;99390.47;5028367;28;19952;-80
2023/05/01 04:00:43;;;;;;;;;;;;;;;14.99;100.00;99387.97;5038087;28;19921;-80
2023/05/01 04:03:26;;;;;;;;;;;;;;;14.98;100.00;99383.66;5027114;28;19965;-79
2023/05/01 04:05:52;;;;;;;;;;;;;;;14.96;100.00;99393.63;5035360;28;19992;-80
2023/05/01 04:08:17;;;;;;;;;;;;;;;14.97;100.00;99386.50;5035315;28;19964;-80
2023/05/01 04:10:43;;;;;;;;;;;;;;;14.97;100.00;99395.28;5043772;28;19937;-80
2023/05/01 04:13:09;;;;;;;;;;;;;;;14.97;100.00;99389.97;5034384;28;19974;-80
2023/05/01 04:15:35;;;;;;;;;;;;;;;14.92;100.00;99392.34;5043381;28;20320;-80
2023/05/01 04:18:00;;;;;;;;;;;;;;;14.90;100.00;99397.00;5039174;28;19975;-80
2023/05/01 04:20:26;;;;;;;;;;;;;;;14.91;100.00;99396.00;5026424;28;19917;-81
2023/05/01 04:22:51;;;;;;;;;;;;;;;14.94;100.00;99400.97;5036254;28;19920;-80
2023/05/01 04:25:16;;;;;;;;;;;;;;;14.96;100.00;99401.59;5041521;28;19927;-80
2023/05/01 04:27:43;;;;;;;;;;;;;;;14.95;100.00;99402.63;5033831;28;19987;-80
2023/05/01 04:30:09;;;;;;;;;;;;;;;14.90;100.00;99399.66;5023511;28;20384;-80
2023/05/01 04:32:35;;;;;;;;;;;;;;;14.96;100.00;99403.47;5026687;28;19928;-81
2023/05/01 04:35:01;;;;;;;;;;;;;;;14.92;100.00;99402.97;5042307;28;19921;-80
2023/05/01 04:37:27;;;;;;;;;;;;;;;14.90;100.00;99410.28;5024399;28;20785;-80
2023/05/01 04:39:54;;;;;;;;;;;;;;;14.93;100.00;99415.25;5024362;28;19928;-81
2023/05/01 04:42:20;;;;;;;;;;;;;;;14.93;100.00;99415.25;5030435;28;19929;-81
2023/05/01 04:44:46;;;;;;;;;;;;;;;14.94;100.00;99416.91;5029056;28;19921;-81
2023/05/01 04:47:14;;;;;;;;;;;;;;;14.99;100.00;99417.22;5020249;28;19921;-81
2023/05/01 04:49:40;;;;;;;;;;;;;;;14.94;100.00;99422.22;5036598;28;19928;-81
2023/05/01 04:52:06;;;;;;;;;;;;;;;14.86;100.00;99424.91;5029596;28;20020;-81
2023/05/01 04:54:45;;;;;;;;;;;;;;;14.87;100.00;99426.56;5035294;28;19983;-81
2023/05/01 04:57:10;;;;;;;;;;;;;;;14.89;100.00;99429.88;5025033;28;19925;-80
2023/05/01 04:59:35;;;;;;;;;;;;;;;14.93;100.00;99427.69;5033761;28;19921;-80
2023/05/01 05:02:01;;;;;;;;;;;;;;;14.91;100.00;99427.03;5039277;28;19928;-80
2023/05/01 05:04:26;;;;;;;;;;;;;;;14.89;100.00;99429.06;5024528;28;19921;-81
2023/05/01 05:06:52;;;;;;;;;;;;;;;14.89;100.00;99442.34;5040821;28;19928;-82
2023/05/01 05:09:25;;;;;;;;;;;;;;;14.93;100.00;99444.47;5015092;28;19921;-81
2023/05/01 05:11:50;;;;;;;;;;;;;;;14.98;100.00;99446.59;5040387;28;19966;-81
2023/05/01 05:14:20;;;;;;;;;;;;;;;14.97;100.00;99443.13;5023370;28;19979;-81
2023/05/01 05:16:45;;;;;;;;;;;;;;;15.03;100.00;99444.25;5042370;28;20393;-81
2023/05/01 05:19:11;;;;;;;;;;;;;;;15.02;100.00;99450.59;5041636;28;19920;-80
2023/05/01 05:21:40;;;;;;;;;;;;;;;14.95;100.00;99442.47;5039207;28;19916;-80
2023/05/01 05:24:05;;;;;;;;;;;;;;;14.89;100.00;99451.16;5022994;28;19974;-81
2023/05/01 05:26:31;;;;;;;;;;;;;;;14.93;100.00;99447.13;5042185;28;19917;-81
2023/05/01 05:29:00;;;;;;;;;;;;;;;14.94;100.00;99454.09;5022982;28;19971;-80
2023/05/01 05:31:26;;;;;;;;;;;;;;;14.96;100.00;99457.41;5040989;28;19972;-81
2023/05/01 05:33:51;;;;;;;;;;;;;;;14.94;100.00;99459.41;5036795;28;20254;-81
2023/05/01 05:36:17;;;;;;;;;;;;;;;14.95;100.00;99460.25;5041476;28;20003;-80
2023/05/01 05:38:43;;;;;;;;;;;;;;;14.94;100.00;99459.41;5038511;28;19928;-80
2023/05/01 05:41:12;;;;;;;;;;;;;;;14.92;100.00;99456.09;5021029;28;20017;-80
2023/05/01 05:43:38;;;;;;;;;;;;;;;14.94;100.00;99451.44;5020151;28;19953;-80
2023/05/01 05:46:06;;;;;;;;;;;;;;;14.94;100.00;99454.09;5035661;28;19925;-81
2023/05/01 05:48:33;;;;;;;;;;;;;;;14.95;100.00;99450.44;5019306;28;19925;-81
2023/05/01 05:50:59;;;;;;;;;;;;;;;15.02;100.00;99454.06;5021813;28;19932;-81
2023/05/01 05:53:25;;;;;;;;;;;;;;;15.00;100.00;99456.06;5037489;28;19921;-80
2023/05/01 05:55:50;;;;;;;;;;;;;;;14.90;100.00;99468.75;5037120;28;19925;-80
2023/05/01 05:58:18;;;;;;;;;;;;;;;14.90;100.00;99466.09;5038740;28;19929;-80
2023/05/01 06:00:46;;;;;;;;;;;;;;;14.88;100.00;99453.97;5037318;28;19920;-80
2023/05/01 06:03:11;;;;;;;;;;;;;;;14.87;100.00;99460.28;5024366;28;20300;-80
2023/05/01 06:05:37;;;;;;;;;;;;;;;14.87;100.00;99458.44;5037755;28;20032;-81
2023/05/01 06:08:02;;;;;;;;;;;;;;;14.93;100.00;99454.28;5035868;28;19920;-80
2023/05/01 06:10:28;;;;;;;;;;;;;;;14.87;100.00;99453.13;5041791;28;19921;-81
2023/05/01 06:12:53;;;;;;;;;;;;;;;14.91;100.00;99457.09;5035049;28;20008;-81
2023/05/01 06:15:19;;;;;;;;;;;;;;;14.87;100.00;99458.44;5041158;28;19925;-80
2023/05/01 06:17:51;;;;;;;;;;;;;;;14.86;100.00;99462.09;5025321;28;19968;-81
2023/05/01 06:20:16;;;;;;;;;;;;;;;14.90;100.00;99455.47;5040871;28;20289;-80
2023/05/01 06:22:42;;;;;;;;;;;;;;;14.90;100.00;99457.28;5018319;28;20361;-79
2023/05/01 06:25:14;;;;;;;;;;;;;;;14.94;100.00;99459.41;5026929;28;19955;-81
2023/05/01 06:27:39;;;;;;;;;;;;;;;14.98;100.00;99457.22;5026238;28;19925;-81
2023/05/01 06:30:05;;;;;;;;;;;;;;;15.00;100.00;99458.72;5049586;28;19932;-81
2023/05/01 06:32:32;;;;;;;;;;;;;;;15.04;100.00;99464.50;5032800;28;19950;-81
2023/05/01 06:34:58;;;;;;;;;;;;;;;15.04;100.00;99459.19;5017893;28;20396;-79
2023/05/01 06:37:23;;;;;;;;;;;;;;;15.04;100.00;99465.34;5037453;28;19967;-81
2023/05/01 06:39:49;;;;;;;;;;;;;;;15.02;100.00;99466.53;5041364;28;20028;-83
2023/05/01 06:42:15;;;;;;;;;;;;;;;15.02;100.00;99467.34;5037845;28;19939;-80
2023/05/01 06:44:41;;;;;;;;;;;;;;;15.06;100.00;99457.22;5020985;28;19928;-80
2023/05/01 06:47:07;;;;;;;;;;;;;;;15.08;100.00;99471.97;5035933;28;20336;-80
2023/05/01 06:49:32;;;;;;;;;;;;;;;15.11;100.00;99470.78;5038736;28;19974;-81
2023/05/01 06:51:59;;;;;;;;;;;;;;;15.16;100.00;99473.75;5041469;28;19994;-80
2023/05/01 06:54:27;;;;;;;;;;;;;;;15.20;100.00;99479.56;5035459;28;19921;-81
2023/05/01 06:56:53;;;;;;;;;;;;;;;15.21;100.00;99473.22;5033195;28;20300;-80
2023/05/01 06:59:18;;;;;;;;;;;;;;;15.23;100.00;99471.22;5034489;28;19933;-81
2023/05/01 07:01:44;;;;;;;;;;;;;;;15.18;100.00;99470.94;5040349;28;20523;-80
2023/05/01 07:04:10;;;;;;;;;;;;;;;15.22;100.00;99472.22;5041069;28;19932;-81
2023/05/01 07:06:36;;;;;;;;;;;;;;;15.14;100.00;99465.94;5037589;28;20002;-80
2023/05/01 07:09:02;;;;;;;;;;;;;;;15.23;100.00;99468.56;5041236;28;20011;-82
2023/05/01 07:11:27;;;;;;;;;;;;;;;15.32;100.00;99467.50;5039195;28;20396;-81
2023/05/01 07:13:53;;;;;;;;;;;;;;;15.31;100.00;99463.22;5039500;28;19917;-82
2023/05/01 07:16:19;;;;;;;;;;;;;;;15.36;100.00;99469.66;5043447;28;20023;-81
2023/05/01 07:18:44;;;;;;;;;;;;;;;15.37;100.00;99468.69;5044470;28;20438;-80
2023/05/01 07:21:10;;;;;;;;;;;;;;;15.45;100.00;99465.13;5039021;28;19924;-80
2023/05/01 07:23:36;;;;;;;;;;;;;;;15.46;100.00;99469.44;5045877;28;19975;-80
2023/05/01 07:26:02;;;;;;;;;;;;;;;15.50;100.00;99470.72;5043344;28;19921;-80
2023/05/01 07:28:27;;;;;;;;;;;;;;;15.49;100.00;99472.56;5041530;28;19959;-80
2023/05/01 07:30:52;;;;;;;;;;;;;;;15.57;100.00;99474.38;5043899;28;19981;-79
2023/05/01 07:33:18;;;;;;;;;;;;;;;15.54;100.00;99472.09;5042955;28;19921;-79
2023/05/01 07:35:43;;;;;;;;;;;;;;;15.53;100.00;99475.75;5044953;28;19924;-80
2023/05/01 07:38:08;;;;;;;;;;;;;;;15.54;100.00;99474.75;5047509;28;19978;-80
2023/05/01 07:40:34;;;;;;;;;;;;;;;15.54;100.00;99472.91;5044825;28;19936;-80
2023/05/01 07:42:59;;;;;;;;;;;;;;;15.48;100.00;99480.72;5046378;28;19924;-80
2023/05/01 07:45:25;;;;;;;;;;;;;;;15.46;100.00;99469.44;5048013;28;20015;-80
2023/05/01 07:47:51;;;;;;;;;;;;;;;15.44;100.00;99472.25;5044034;28;19928;-78
2023/05/01 07:50:16;;;;;;;;;;;;;;;15.47;100.00;99471.09;5038487;28;19946;-80
2023/05/01 07:52:42;;;;;;;;;;;;;;;15.48;100.00;99478.06;5045566;28;19928;-81
2023/05/01 07:55:07;;;;;;;;;;;;;;;15.44;100.00;99476.75;5043000;28;19932;-80
2023/05/01 07:57:33;;;;;;;;;;;;;;;15.49;100.00;99475.22;5042268;28;19957;-80
2023/05/01 07:59:59;;;;;;;;;;;;;;;15.59;100.00;99474.22;5044343;28;20334;-80
2023/05/01 08:02:24;;;;;;;;;;;;;;;15.73;100.00;99476.91;5042613;28;19967;-82
2023/05/01 08:04:50;;;;;;;;;;;;;;;15.87;100.00;99467.34;5040066;28;19921;-82
2023/05/01 08:07:15;;;;;;;;;;;;;;;15.97;100.00;99474.06;5044559;28;19928;-80
2023/05/01 08:09:41;;;;;;;;;;;;;;;16.13;100.00;99477.63;5041049;28;20003;-80
2023/05/01 08:12:06;;;;;;;;;;;;;;;16.22;100.00;99471.19;5041091;28;19959;-80
2023/05/01 08:14:31;;;;;;;;;;;;;;;16.32;100.00;99477.06;5041539;28;19927;-80
2023/05/01 08:16:57;;;;;;;;;;;;;;;16.39;100.00;99472.69;5021658;28;19921;-81
2023/05/01 08:19:22;;;;;;;;;;;;;;;16.39;100.00;99472.69;5043577;28;20357;-80
2023/05/01 08:21:48;;;;;;;;;;;;;;;16.35;100.00;99476.72;5041879;28;20433;-81
2023/05/01 08:24:13;;;;;;;;;;;;;;;16.34;100.00;99480.41;5038650;28;19928;-81
2023/05/01 08:26:38;;;;;;;;;;;;;;;16.27;100.00;99490.13;5036481;28;20024;-81
2023/05/01 08:29:04;;;;;;;;;;;;;;;16.23;100.00;99487.00;5039335;28;20375;-80
2023/05/01 08:31:29;;;;;;;;;;;;;;;16.08;100.00;99488.78;5042560;28;19925;-81
2023/05/01 08:33:55;;;;;;;;;;;;;;;16.04;100.00;99491.97;5044746;28;19921;-81
2023/05/01 08:36:20;;;;;;;;;;;;;;;16.04;100.00;99489.31;5043372;28;20296;-81
2023/05/01 08:38:45;;;;;;;;;;;;;;;16.08;100.00;99491.44;5045344;28;19925;-81
2023/05/01 08:41:15;;;;;;;;;;;;;;;16.13;100.00;99488.25;5039127;28;19921;-81
2023/05/01 08:43:41;;;;;;;;;;;;;;;16.18;100.00;99496.53;5028721;28;19974;-81
2023/05/01 08:46:08;;;;;;;;;;;;;;;16.17;100.00;99498.38;5043268;28;20025;-81
2023/05/01 08:48:34;;;;;;;;;;;;;;;16.06;100.00;99492.63;5024174;28;19921;-80
2023/05/01 08:51:01;;;;;;;;;;;;;;;16.00;100.00;99498.69;5045563;28;19971;-80
2023/05/01 08:53:27;;;;;;;;;;;;;;;16.02;100.00;99496.69;5049861;28;19921;-80
2023/05/01 08:55:57;;;;;;;;;;;;;;;16.01;100.00;99500.34;5054935;28;20404;-80
2023/05/01 08:58:23;;;;;;;;;;;;;;;16.02;100.00;99502.00;5043484;28;19974;-80
2023/05/01 09:00:49;;;;;;;;;;;;;;;16.07;100.00;99504.94;5040428;28;19921;-81
2023/05/01 09:03:15;;;;;;;;;;;;;;;16.13;100.00;99499.75;5038984;28;20373;-80
2023/05/01 09:05:41;;;;;;;;;;;;;;;16.15;100.00;99500.38;5036482;28;19921;-81
2023/05/01 09:08:06;;;;;;;;;;;;;;;16.13;100.00;99498.91;5038658;28;20427;-82
2023/05/01 09:10:32;;;;;;;;;;;;;;;16.10;100.00;99493.94;5041900;28;19936;-80
2023/05/01 09:13:00;;;;;;;;;;;;;;;16.08;100.00;99496.75;5038654;28;19936;-81
2023/05/01 09:15:26;;;;;;;;;;;;;;;16.10;100.00;99497.41;5041438;28;19940;-81
2023/05/01 09:17:52;;;;;;;;;;;;;;;16.16;100.00;99494.03;5042110;28;20297;-80
2023/05/01 09:20:17;;;;;;;;;;;;;;;16.16;100.00;99496.69;5040497;28;20399;-79
2023/05/01 09:22:43;;;;;;;;;;;;;;;16.20;100.00;99503.31;5038065;28;19932;-80
2023/05/01 09:25:09;;;;;;;;;;;;;;;16.24;100.00;99501.13;5036619;28;20168;-80
2023/05/01 09:27:36;;;;;;;;;;;;;;;16.26;100.00;99509.75;5040144;28;19965;-81
2023/05/01 09:30:02;;;;;;;;;;;;;;;16.24;100.00;99509.13;5041575;28;20300;-80
2023/05/01 09:32:27;;;;;;;;;;;;;;;16.24;100.00;99511.78;5043395;28;19921;-80
2023/05/01 09:34:53;;;;;;;;;;;;;;;16.17;100.00;99517.00;5030976;28;19918;-81
2023/05/01 09:37:32;;;;;;;;;;;;;;;16.18;100.00;99512.50;5041240;28;19931;-82
2023/05/01 09:40:10;;;;;;;;;;;;;;;16.22;100.00;99513.78;5040360;28;19963;-80
2023/05/01 09:42:39;;;;;;;;;;;;;;;16.27;100.00;99527.38;5041688;28;19920;-81
2023/05/01 09:45:06;;;;;;;;;;;;;;;16.22;100.00;99524.44;5039320;28;19925;-81
2023/05/01 09:47:33;;;;;;;;;;;;;;;16.28;100.00;99524.56;5036647;28;19921;-81
2023/05/01 09:49:58;;;;;;;;;;;;;;;16.31;100.00;99518.06;5040007;28;20288;-81
2023/05/01 09:52:27;;;;;;;;;;;;;;;16.28;100.00;99523.72;5041980;28;20007;-82
2023/05/01 09:55:12;;;;;;;;;;;;;;;16.29;100.00;99530.72;5039047;28;19921;-81
2023/05/01 09:57:38;;;;;;;;;;;;;;;16.39;100.00;99525.94;5039701;28;20012;-81
2023/05/01 10:00:08;;;;;;;;;;;;;;;16.37;100.00;99533.31;5039596;28;20031;-81
2023/05/01 10:02:33;;;;;;;;;;;;;;;16.35;100.00;99530.81;5040892;28;20288;-81
2023/05/01 10:04:59;;;;;;;;;;;;;;;16.45;100.00;99538.53;5037122;28;19921;-81
2023/05/01 10:07:25;;;;;;;;;;;;;;;16.40;100.00;99527.59;5021626;28;19967;-80
2023/05/01 10:09:50;;;;;;;;;;;;;;;16.44;100.00;99539.53;5040746;28;20027;-81
2023/05/01 10:12:25;;;;;;;;;;;;;;;16.52;100.00;99542.16;5042498;28;20470;-80
2023/05/01 10:14:54;;;;;;;;;;;;;;;16.38;100.00;99530.44;5036360;28;19940;-80
2023/05/01 10:17:20;;;;;;;;;;;;;;;16.39;100.00;99532.09;5041535;28;19925;-81
2023/05/01 10:19:46;;;;;;;;;;;;;;;16.45;100.00;99524.41;5038302;28;20443;-80
2023/05/01 10:22:11;;;;;;;;;;;;;;;16.54;100.00;99531.31;5040542;28;20334;-81
2023/05/01 10:24:38;;;;;;;;;;;;;;;16.56;100.00;99537.28;5041410;28;19917;-79
2023/05/01 10:27:05;;;;;;;;;;;;;;;16.42;100.00;99530.94;5038493;28;20507;-81
2023/05/01 10:29:33;;;;;;;;;;;;;;;16.38;100.00;99526.94;5035089;28;19921;-81
2023/05/01 10:31:59;;;;;;;;;;;;;;;16.38;100.00;99530.44;5037939;28;20484;-79
2023/05/01 10:34:25;;;;;;;;;;;;;;;16.45;100.00;99535.06;5039608;28;19921;-80
2023/05/01 10:36:56;;;;;;;;;;;;;;;16.47;100.00;99535.72;5040262;28;19976;-80
2023/05/01 10:39:32;;;;;;;;;;;;;;;16.44;100.00;99534.22;5041504;28;19968;-81
2023/05/01 10:41:57;;;;;;;;;;;;;;;16.44;100.00;99531.56;5037459;28;19928;-82
2023/05/01 10:44:23;;;;;;;;;;;;;;;16.38;100.00;99530.44;5038825;28;20019;-81
2023/05/01 10:46:49;;;;;;;;;;;;;;;16.26;100.00;99528.38;5038830;28;19928;-81
2023/05/01 10:49:14;;;;;;;;;;;;;;;16.07;100.00;99531.56;5040719;28;19921;-80
2023/05/01 10:52:06;;;;;;;;;;;;;;;16.02;100.00;99536.59;5041003;28;19929;-80
2023/05/01 10:54:32;;;;;;;;;;;;;;;15.89;100.00;99530.03;5036154;28;20400;-80
2023/05/01 10:57:01;;;;;;;;;;;;;;;15.70;100.00;99535.81;5038413;28;19928;-81
2023/05/01 10:59:46;;;;;;;;;;;;;;;15.72;100.00;99528.50;5039623;28;19920;-80
2023/05/01 11:02:21;;;;;;;;;;;;;;;15.69;100.00;99534.16;5019985;28;19921;-80
2023/05/01 11:04:54;;;;;;;;;;;;;;;15.66;100.00;99529.19;5037873;28;19920;-80
2023/05/01 11:07:20;;;;;;;;;;;;;;;15.64;100.00;99531.19;5039706;28;19950;-82
2023/05/01 11:09:58;;;;;;;;;;;;;;;15.59;100.00;99533.56;5039082;28;19944;-81
2023/05/01 11:12:42;;;;;;;;;;;;;;;15.49;100.00;99528.41;5042223;28;19921;-81
2023/05/01 11:15:08;;;;;;;;;;;;;;;15.47;100.00;99521.63;5040130;28;19917;-80
2023/05/01 11:17:40;;;;;;;;;;;;;;;15.45;100.00;99520.97;5047386;28;19921;-80
2023/05/01 11:20:06;;;;;;;;;;;;;;;15.46;100.00;99517.31;5037082;28;19918;-80
2023/05/01 11:22:32;;;;;;;;;;;;;;;15.50;100.00;99518.59;5038808;28;19932;-80
2023/05/01 11:24:57;;;;;;;;;;;;;;;15.50;100.00;99514.09;5035940;28;19917;-80
2023/05/01 11:27:22;;;;;;;;;;;;;;;15.48;100.00;99521.47;5038121;28;20035;-81
2023/05/01 11:29:49;;;;;;;;;;;;;;;15.50;100.00;99515.94;5035375;28;19967;-80
2023/05/01 11:32:17;;;;;;;;;;;;;;;15.48;100.00;99515.31;5040528;28;19920;-80
2023/05/01 11:34:43;;;;;;;;;;;;;;;15.38;100.00;99512.00;5039309;28;19920;-80
2023/05/01 11:37:08;;;;;;;;;;;;;;;15.29;100.00;99515.72;5028346;28;20028;-80
2023/05/01 11:39:33;;;;;;;;;;;;;;;15.18;100.00;99514.28;5039602;28;19943;-80
2023/05/01 11:42:05;;;;;;;;;;;;;;;15.22;100.00;99514.75;5042459;28;19932;-80
2023/05/01 11:44:31;;;;;;;;;;;;;;;15.20;100.00;99508.81;5046295;28;19943;-80
2023/05/01 11:46:56;;;;;;;;;;;;;;;15.10;100.00;99507.16;5046083;28;19921;-79
2023/05/01 11:49:28;;;;;;;;;;;;;;;15.14;100.00;99502.31;5031562;28;20011;-80
2023/05/01 11:51:57;;;;;;;;;;;;;;;15.15;100.00;99510.13;5041221;28;19956;-81
2023/05/01 11:54:22;;;;;;;;;;;;;;;15.18;100.00;99500.16;5041682;28;20023;-80
2023/05/01 11:56:56;;;;;;;;;;;;;;;15.17;100.00;99502.00;5035588;28;20012;-80
2023/05/01 11:59:21;;;;;;;;;;;;;;;15.15;100.00;99496.84;5036052;28;19920;-81
2023/05/01 12:01:47;;;;;;;;;;;;;;;15.15;100.00;99499.50;5037878;28;19927;-80
2023/05/01 12:04:21;;;;;;;;;;;;;;;15.23;100.00;99498.66;5043603;28;19925;-80
2023/05/01 12:06:47;;;;;;;;;;;;;;;15.29;100.00;99494.47;5034633;28;19928;-81
2023/05/01 12:09:17;;;;;;;;;;;;;;;15.20;100.00;99500.84;5042657;28;20297;-80
2023/05/01 12:11:43;;;;;;;;;;;;;;;15.17;100.00;99496.69;5020867;28;20848;-80
2023/05/01 12:14:09;;;;;;;;;;;;;;;15.19;100.00;99496.53;5038657;28;19940;-80
2023/05/01 12:16:35;;;;;;;;;;;;;;;15.27;100.00;99493.81;5041506;28;19928;-80
2023/05/01 12:19:00;;;;;;;;;;;;;;;15.31;100.00;99498.63;5042790;28;19917;-81
2023/05/01 12:21:26;;;;;;;;;;;;;;;15.28;100.00;99498.13;5040391;28;19921;-80
2023/05/01 12:23:53;;;;;;;;;;;;;;;15.31;100.00;99497.78;5014132;28;19921;-80
2023/05/01 12:26:22;;;;;;;;;;;;;;;15.34;100.00;99502.75;5041517;28;19967;-81
2023/05/01 12:28:53;;;;;;;;;;;;;;;15.41;100.00;99493.06;5038617;28;20265;-82
2023/05/01 12:31:19;;;;;;;;;;;;;;;15.37;100.00;99494.44;5043128;28;19925;-81
2023/05/01 12:33:55;;;;;;;;;;;;;;;15.40;100.00;99502.03;5036495;28;19995;-80
2023/05/01 12:36:24;;;;;;;;;;;;;;;15.39;100.00;99500.38;5037322;28;19922;-80